Time;durP1;ratioP1;P1;durP2;ratioP2;P2;SDS_P1;SDS_P2;PMS_P1;PMS_P2;Temp;Humidity;BMP_temperature;BMP_pressure;BME280_temperature;BME280_humidity;BME280_pressure;Samples;Min_cycle;Max_cycle;Signal;HPM_P1;HPM_P2
2021/01/17 00:00:04;;;;;;;37.50;21.33;;;1.50;91.10;;;;;;5083289;28;20031;-74
2021/01/17 00:02:30;;;;;;;31.67;20.13;;;1.50;91.10;;;;;;5099094;28;20028;-74
2021/01/17 00:04:55;;;;;;;38.45;21.50;;;1.50;91.00;;;;;;5060599;28;20085;-74
2021/01/17 00:07:21;;;;;;;41.70;24.27;;;1.50;91.00;;;;;;5076732;28;20032;-74
2021/01/17 00:09:47;;;;;;;34.85;21.15;;;1.50;91.10;;;;;;5078622;28;20370;-73
2021/01/17 00:12:12;;;;;;;35.92;21.27;;;1.50;91.10;;;;;;5076601;28;20103;-74
2021/01/17 00:14:38;;;;;;;35.22;20.58;;;1.50;91.10;;;;;;5094477;28;20490;-74
2021/01/17 00:17:04;;;;;;;33.45;21.23;;;1.50;91.10;;;;;;5094299;28;20032;-74
2021/01/17 00:19:30;;;;;;;36.15;21.55;;;1.50;91.10;;;;;;5081662;28;20032;-75
2021/01/17 00:21:56;;;;;;;38.08;22.17;;;1.50;91.10;;;;;;5088952;28;20024;-74
2021/01/17 00:24:22;;;;;;;31.42;19.77;;;1.50;91.10;;;;;;5066759;28;20480;-74
2021/01/17 00:26:47;;;;;;;34.75;20.63;;;1.60;91.10;;;;;;5061413;28;20031;-74
2021/01/17 00:29:13;;;;;;;33.58;20.70;;;1.60;91.10;;;;;;5073503;28;20028;-74
2021/01/17 00:31:38;;;;;;;39.08;21.05;;;1.50;91.10;;;;;;5077421;28;20539;-73
2021/01/17 00:34:04;;;;;;;32.30;19.58;;;1.50;91.10;;;;;;5096030;28;20035;-74
2021/01/17 00:36:37;;;;;;;31.40;19.80;;;1.60;91.10;;;;;;5092454;28;20502;-74
2021/01/17 00:39:04;;;;;;;33.10;20.25;;;1.60;91.10;;;;;;5095557;28;20619;-74
2021/01/17 00:41:34;;;;;;;32.90;20.27;;;1.50;91.10;;;;;;5075848;28;20192;-74
2021/01/17 00:44:00;;;;;;;32.83;19.77;;;1.50;91.10;;;;;;5096853;28;20023;-74
2021/01/17 00:46:26;;;;;;;37.63;20.10;;;1.60;91.10;;;;;;5095707;28;20035;-74
2021/01/17 00:48:51;;;;;;;34.28;20.63;;;1.50;91.40;;;;;;5096680;28;20016;-74
2021/01/17 00:51:17;;;;;;;34.03;19.55;;;1.60;91.10;;;;;;5092400;28;20060;-73
2021/01/17 00:53:43;;;;;;;35.60;20.33;;;1.60;91.10;;;;;;5092518;28;20131;-74
2021/01/17 00:56:08;;;;;;;32.42;19.70;;;1.60;91.10;;;;;;5075302;28;20040;-74
2021/01/17 00:58:34;;;;;;;32.75;18.90;;;1.60;91.10;;;;;;5093837;28;20024;-74
2021/01/17 01:01:00;;;;;;;36.35;21.02;;;1.60;91.10;;;;;;5075251;28;20038;-73
2021/01/17 01:03:26;;;;;;;36.20;20.88;;;1.60;91.10;;;;;;5091974;28;20442;-74
2021/01/17 01:05:51;;;;;;;31.75;18.95;;;1.60;91.20;;;;;;5092257;28;20063;-74
2021/01/17 01:08:17;;;;;;;32.55;19.25;;;1.60;91.10;;;;;;5091805;28;20078;-74
2021/01/17 01:10:42;;;;;;;34.85;19.83;;;1.60;91.10;;;;;;5092175;28;20028;-74
2021/01/17 01:13:08;;;;;;;33.42;19.92;;;1.60;91.10;;;;;;5071698;28;20109;-74
2021/01/17 01:15:34;;;;;;;32.70;18.42;;;1.60;91.10;;;;;;5067730;28;20067;-74
2021/01/17 01:17:59;;;;;;;32.42;19.95;;;1.60;91.10;;;;;;5075260;28;20395;-74
2021/01/17 01:20:25;;;;;;;32.60;20.23;;;1.60;91.10;;;;;;5092013;28;20040;-74
2021/01/17 01:22:50;;;;;;;32.90;20.20;;;1.60;91.10;;;;;;5093362;28;20028;-74
2021/01/17 01:25:17;;;;;;;37.30;21.83;;;1.60;91.10;;;;;;5091677;28;20028;-74
2021/01/17 01:27:46;;;;;;;40.30;21.73;;;1.60;91.10;;;;;;5091812;28;20473;-74
2021/01/17 01:30:14;;;;;;;36.03;20.90;;;1.60;91.20;;;;;;5095372;28;20031;-75
2021/01/17 01:32:40;;;;;;;32.63;20.85;;;1.60;91.20;;;;;;5069254;28;20070;-74
2021/01/17 01:35:06;;;;;;;36.20;20.15;;;1.60;91.20;;;;;;5076348;28;20043;-74
2021/01/17 01:37:36;;;;;;;36.20;20.98;;;1.60;91.20;;;;;;5105136;28;20035;-74
2021/01/17 01:40:04;;;;;;;31.88;19.30;;;1.60;91.50;;;;;;5075154;28;20492;-74
2021/01/17 01:42:30;;;;;;;35.53;20.25;;;1.60;91.30;;;;;;5091446;28;20036;-73
2021/01/17 01:44:55;;;;;;;36.33;20.35;;;1.60;91.20;;;;;;5075013;28;20497;-74
2021/01/17 01:47:27;;;;;;;40.40;22.55;;;1.70;91.30;;;;;;5094310;28;20019;-74
2021/01/17 01:49:53;;;;;;;37.08;21.23;;;1.70;91.60;;;;;;5093823;28;20785;-74
2021/01/17 01:52:19;;;;;;;32.67;19.60;;;1.60;91.20;;;;;;5092883;28;20111;-74
2021/01/17 01:54:45;;;;;;;34.70;20.42;;;1.70;91.30;;;;;;5093094;28;20032;-74
2021/01/17 01:57:11;;;;;;;36.00;20.92;;;1.60;91.30;;;;;;5057206;28;20036;-74
2021/01/17 01:59:37;;;;;;;37.78;20.83;;;1.70;91.30;;;;;;5091152;28;20119;-73
2021/01/17 02:02:09;;;;;;;36.90;21.50;;;1.70;91.40;;;;;;5106605;28;20112;-74
2021/01/17 02:04:38;;;;;;;38.83;22.17;;;1.70;91.40;;;;;;5091727;28;20512;-74
2021/01/17 02:07:12;;;;;;;31.92;19.20;;;1.60;91.40;;;;;;5092134;28;20491;-74
2021/01/17 02:09:39;;;;;;;35.65;21.20;;;1.70;91.40;;;;;;5092673;28;20420;-75
2021/01/17 02:12:16;;;;;;;35.95;21.88;;;1.70;91.40;;;;;;5056139;28;20047;-74
2021/01/17 02:14:52;;;;;;;38.10;21.30;;;1.70;91.40;;;;;;5082485;28;20020;-74
2021/01/17 02:17:26;;;;;;;33.17;20.20;;;1.70;91.40;;;;;;5092901;28;20027;-74
2021/01/17 02:20:11;;;;;;;31.80;18.67;;;1.70;91.40;;;;;;5093348;28;20026;-74
2021/01/17 02:22:36;;;;;;;34.00;20.00;;;1.70;91.40;;;;;;5092291;28;20081;-74
2021/01/17 02:25:07;;;;;;;37.88;20.50;;;1.70;91.40;;;;;;5074612;28;20166;-73
2021/01/17 02:27:34;;;;;;;34.00;19.85;;;1.70;91.40;;;;;;5057974;28;20431;-74
2021/01/17 02:30:04;;;;;;;37.42;20.33;;;1.70;91.40;;;;;;5074229;28;20115;-74
2021/01/17 02:32:33;;;;;;;34.33;20.73;;;1.70;91.40;;;;;;5061561;28;20040;-74
2021/01/17 02:35:00;;;;;;;;;;;1.70;91.50;;;;;;5097433;28;20016;-74
2021/01/17 02:37:53;;;;;;;44.85;21.05;;;1.70;91.40;;;;;;5094775;28;20319;-74
2021/01/17 02:40:40;;;;;;;36.33;20.20;;;1.70;91.50;;;;;;5080501;28;20031;-74
2021/01/17 02:43:07;;;;;;;36.55;21.48;;;1.70;91.60;;;;;;5096818;28;20036;-74
2021/01/17 02:45:33;;;;;;;38.42;20.77;;;1.70;91.50;;;;;;5077618;28;20051;-74
2021/01/17 02:47:59;;;;;;;39.67;21.58;;;1.70;91.60;;;;;;5072052;28;20379;-74
2021/01/17 02:50:25;;;;;;;34.53;20.25;;;1.70;91.60;;;;;;5062051;28;20061;-74
2021/01/17 02:53:08;;;;;;;38.65;22.10;;;1.70;91.60;;;;;;5086996;28;20480;-73
2021/01/17 02:55:37;;;;;;;39.78;22.67;;;1.70;91.60;;;;;;5079329;28;20476;-74
2021/01/17 02:58:05;;;;;;;34.20;20.13;;;1.70;91.60;;;;;;5066446;28;20465;-74
2021/01/17 03:00:33;;;;;;;36.40;20.55;;;1.70;91.60;;;;;;5078620;28;20039;-74
2021/01/17 03:03:00;;;;;;;34.30;20.75;;;1.70;91.60;;;;;;5095820;28;20031;-74
2021/01/17 03:05:26;;;;;;;36.38;20.48;;;1.70;91.60;;;;;;5105192;28;20086;-74
2021/01/17 03:07:54;;;;;;;37.35;21.42;;;1.70;91.70;;;;;;5078236;28;20047;-74
2021/01/17 03:10:24;;;;;;;43.75;23.05;;;1.70;91.70;;;;;;5095446;28;20070;-74
2021/01/17 03:12:52;;;;;;;37.65;21.23;;;1.70;91.70;;;;;;5070542;28;20376;-74
2021/01/17 03:15:18;;;;;;;34.40;19.83;;;1.70;91.70;;;;;;5095092;28;20385;-74
2021/01/17 03:17:44;;;;;;;38.90;21.40;;;1.70;91.80;;;;;;5083926;28;20032;-74
2021/01/17 03:20:10;;;;;;;37.13;20.63;;;1.70;91.70;;;;;;5093175;28;20034;-74
2021/01/17 03:22:36;;;;;;;33.75;19.85;;;1.70;91.70;;;;;;5095329;28;20114;-74
2021/01/17 03:25:03;;;;;;;36.97;20.88;;;1.80;91.80;;;;;;5075760;28;20115;-74
2021/01/17 03:27:28;;;;;;;35.63;19.95;;;1.70;91.70;;;;;;5096837;28;20020;-74
2021/01/17 03:29:54;;;;;;;39.50;21.45;;;1.70;91.70;;;;;;5076963;28;20427;-74
2021/01/17 03:32:19;;;;;;;32.38;19.60;;;1.70;91.70;;;;;;5087772;28;20146;-74
2021/01/17 03:34:48;;;;;;;35.20;19.90;;;1.70;91.70;;;;;;5108785;27;20031;-74
2021/01/17 03:37:19;;;;;;;38.15;21.33;;;1.80;91.70;;;;;;5097741;28;20143;-74
2021/01/17 03:39:44;;;;;;;36.17;21.33;;;1.80;91.80;;;;;;5117392;27;20031;-74
2021/01/17 03:42:11;;;;;;;34.53;19.73;;;1.80;91.80;;;;;;5080660;28;20051;-74
2021/01/17 03:44:37;;;;;;;37.42;20.45;;;1.80;91.80;;;;;;5132786;27;20066;-75
2021/01/17 03:47:04;;;;;;;38.13;21.02;;;1.80;91.80;;;;;;5083687;28;20035;-74
2021/01/17 03:49:30;;;;;;;35.47;20.33;;;1.80;91.80;;;;;;5098483;28;20380;-74
2021/01/17 03:51:55;;;;;;;33.10;19.58;;;1.80;91.80;;;;;;5108142;27;20029;-74
2021/01/17 03:54:21;;;;;;;35.72;20.38;;;1.80;91.80;;;;;;5147897;27;20038;-74
2021/01/17 03:56:47;;;;;;;35.75;20.58;;;1.80;91.80;;;;;;5120875;28;20076;-74
2021/01/17 03:59:16;;;;;;;39.35;20.38;;;1.80;91.80;;;;;;5106113;28;20031;-74
2021/01/17 04:01:42;;;;;;;35.80;19.75;;;1.80;91.80;;;;;;5104139;27;20019;-74
2021/01/17 04:04:08;;;;;;;35.83;19.70;;;1.80;91.80;;;;;;5113590;28;20396;-74
2021/01/17 04:06:35;;;;;;;36.42;20.38;;;1.80;91.80;;;;;;5110634;28;20035;-74
2021/01/17 04:09:02;;;;;;;34.30;19.33;;;1.80;91.90;;;;;;5096612;28;20068;-74
2021/01/17 04:11:28;;;;;;;42.80;21.30;;;1.80;91.90;;;;;;5114754;28;20024;-74
2021/01/17 04:13:53;;;;;;;39.33;21.38;;;1.80;91.90;;;;;;5096848;28;20042;-74
2021/01/17 04:16:19;;;;;;;40.83;21.90;;;1.80;91.90;;;;;;5098294;28;20058;-74
2021/01/17 04:18:44;;;;;;;38.97;20.42;;;1.80;91.90;;;;;;5096837;28;20028;-74
2021/01/17 04:21:10;;;;;;;35.92;20.02;;;1.80;91.90;;;;;;5070889;28;20027;-74
2021/01/17 04:23:36;;;;;;;39.13;21.05;;;1.80;91.90;;;;;;5090906;28;20130;-74
2021/01/17 04:26:01;;;;;;;35.00;18.80;;;1.80;91.90;;;;;;5114725;27;20587;-74
2021/01/17 04:28:27;;;;;;;40.30;21.45;;;1.90;91.90;;;;;;5114290;28;20545;-74
2021/01/17 04:30:53;;;;;;;39.30;21.13;;;1.80;91.90;;;;;;5111700;28;20106;-74
2021/01/17 04:33:19;;;;;;;37.42;20.08;;;1.80;92.00;;;;;;5131626;27;20403;-74
2021/01/17 04:35:46;;;;;;;41.00;20.52;;;1.90;92.00;;;;;;5098875;28;20039;-74
2021/01/17 04:38:11;;;;;;;35.55;18.92;;;1.80;92.00;;;;;;5114375;27;20488;-74
2021/01/17 04:40:37;;;;;;;38.38;20.60;;;1.90;92.00;;;;;;5100427;28;20105;-74
2021/01/17 04:43:08;;;;;;;35.15;19.38;;;1.90;92.10;;;;;;5118498;27;20024;-74
2021/01/17 04:45:35;;;;;;;40.95;20.20;;;1.90;92.10;;;;;;5114149;28;20024;-74
2021/01/17 04:48:06;;;;;;;35.78;19.50;;;1.90;92.10;;;;;;5131774;27;20450;-74
2021/01/17 04:50:33;;;;;;;36.40;19.13;;;1.90;92.00;;;;;;5114434;27;20028;-74
2021/01/17 04:53:04;;;;;;;39.25;21.08;;;1.90;92.10;;;;;;5119199;27;20023;-74
2021/01/17 04:55:32;;;;;;;37.88;20.70;;;1.90;92.10;;;;;;5114747;27;20028;-74
2021/01/17 04:58:19;;;;;;;32.33;15.55;;;1.90;92.20;;;;;;5107012;27;20027;-74
2021/01/17 05:00:58;;;;;;;35.28;18.67;;;1.90;92.20;;;;;;5093665;28;20093;-74
2021/01/17 05:03:26;;;;;;;36.85;18.75;;;1.90;92.20;;;;;;5078512;28;20032;-74
2021/01/17 05:06:14;;;;;;;34.53;19.13;;;1.80;92.20;;;;;;5092282;28;20388;-74
2021/01/17 05:08:46;;;;;;;37.97;20.75;;;1.90;92.30;;;;;;5112976;27;20047;-74
2021/01/17 05:11:25;;;;;;;35.80;19.45;;;1.90;92.20;;;;;;5096547;28;20031;-73
2021/01/17 05:14:19;;;;;;;40.00;20.67;;;1.90;92.30;;;;;;5105550;27;20034;-74
2021/01/17 05:16:47;;;;;;;37.08;19.45;;;1.90;92.30;;;;;;5127874;27;20040;-74
2021/01/17 05:19:17;;;;;;;36.78;18.58;;;1.90;92.20;;;;;;5116284;27;20039;-74
2021/01/17 05:21:51;;;;;;;36.08;17.98;;;1.90;92.30;;;;;;5108198;27;20084;-74
2021/01/17 05:24:18;;;;;;;34.92;17.27;;;1.90;92.30;;;;;;5134487;27;20020;-73
2021/01/17 05:26:54;;;;;;;35.03;17.50;;;1.90;92.20;;;;;;5116999;27;20092;-74
2021/01/17 05:29:24;;;;;;;35.83;17.55;;;1.90;92.30;;;;;;5112215;27;20088;-74
2021/01/17 05:31:57;;;;;;;36.25;19.17;;;2.00;92.20;;;;;;5127535;27;20044;-74
2021/01/17 05:34:24;;;;;;;33.15;17.67;;;1.90;92.20;;;;;;5113773;28;20020;-74
2021/01/17 05:37:03;;;;;;;34.90;17.67;;;1.90;92.30;;;;;;5124729;27;20091;-74
2021/01/17 05:39:28;;;;;;;32.67;17.90;;;2.00;92.30;;;;;;5115927;27;20480;-74
2021/01/17 05:42:05;;;;;;;33.67;17.77;;;2.00;92.30;;;;;;5132314;27;20042;-74
2021/01/17 05:44:31;;;;;;;37.85;19.00;;;1.90;92.30;;;;;;5132263;27;20160;-74
2021/01/17 05:47:06;;;;;;;32.60;16.95;;;2.00;92.30;;;;;;5116732;27;20114;-74
2021/01/17 05:49:33;;;;;;;29.52;17.08;;;1.90;92.30;;;;;;5078754;28;20035;-74
2021/01/17 05:52:13;;;;;;;36.17;18.48;;;2.00;92.30;;;;;;5101707;28;20467;-74
2021/01/17 05:54:40;;;;;;;29.33;17.00;;;2.00;92.40;;;;;;5111872;28;20031;-74
2021/01/17 05:57:14;;;;;;;31.88;17.13;;;2.00;92.40;;;;;;5110989;28;20031;-74
2021/01/17 05:59:41;;;;;;;32.80;17.65;;;2.00;92.40;;;;;;5115017;28;20107;-75
2021/01/17 06:02:14;;;;;;;33.78;17.35;;;2.00;92.40;;;;;;5113926;28;20407;-74
2021/01/17 06:04:44;;;;;;;33.25;16.38;;;2.00;92.40;;;;;;5097689;28;20031;-74
2021/01/17 06:07:11;;;;;;;30.70;15.57;;;2.00;92.40;;;;;;5109394;28;20492;-74
2021/01/17 06:09:38;;;;;;;28.23;15.85;;;2.00;92.40;;;;;;5099244;28;20024;-74
2021/01/17 06:12:05;;;;;;;32.03;16.98;;;2.00;92.40;;;;;;5112784;27;20027;-74
2021/01/17 06:14:31;;;;;;;30.45;15.60;;;2.00;92.40;;;;;;5115183;28;20428;-74
2021/01/17 06:17:02;;;;;;;26.63;15.57;;;2.00;92.40;;;;;;5106495;27;20095;-74
2021/01/17 06:19:33;;;;;;;34.50;17.10;;;2.10;92.40;;;;;;5106805;28;20020;-75
2021/01/17 06:22:01;;;;;;;30.02;16.35;;;2.00;92.40;;;;;;5083111;28;20424;-75
2021/01/17 06:24:37;;;;;;;26.70;15.50;;;2.00;92.40;;;;;;5102274;27;20031;-74
2021/01/17 06:27:04;;;;;;;29.92;15.85;;;2.00;92.50;;;;;;5110218;27;20039;-75
2021/01/17 06:29:43;;;;;;;31.98;16.52;;;2.00;92.50;;;;;;5115630;27;20023;-75
2021/01/17 06:32:12;;;;;;;28.33;15.73;;;2.00;92.80;;;;;;5100691;28;20052;-74
2021/01/17 06:34:43;;;;;;;26.95;15.15;;;2.00;92.40;;;;;;5121946;27;20348;-74
2021/01/17 06:37:11;;;;;;;34.55;17.15;;;2.00;92.50;;;;;;5117664;27;20035;-75
2021/01/17 06:39:42;;;;;;;29.95;15.73;;;2.10;92.50;;;;;;5111463;27;20121;-74
2021/01/17 06:42:11;;;;;;;27.40;15.57;;;2.00;92.50;;;;;;5116957;28;20051;-74
2021/01/17 06:44:37;;;;;;;23.10;14.18;;;2.00;92.50;;;;;;5111177;27;20111;-75
2021/01/17 06:47:03;;;;;;;37.30;16.58;;;2.00;92.50;;;;;;5099302;28;20039;-75
2021/01/17 06:49:35;;;;;;;31.85;16.83;;;2.10;92.50;;;;;;5102455;28;20042;-75
2021/01/17 06:52:05;;;;;;;34.33;16.65;;;2.10;92.50;;;;;;5115811;28;20020;-74
2021/01/17 06:54:42;;;;;;;34.00;17.00;;;2.00;92.50;;;;;;5109882;27;20023;-74
2021/01/17 06:57:08;;;;;;;35.80;17.60;;;2.10;92.60;;;;;;5098519;27;20488;-74
2021/01/17 06:59:36;;;;;;;37.50;18.23;;;2.00;92.50;;;;;;5099474;27;20070;-74
2021/01/17 07:02:14;;;;;;;37.13;17.03;;;2.00;92.60;;;;;;5099720;28;20028;-75
2021/01/17 07:04:44;;;;;;;29.13;15.90;;;2.10;92.60;;;;;;5118032;27;20106;-75
2021/01/17 07:07:36;;;;;;;33.33;16.38;;;2.00;92.60;;;;;;5123666;27;20112;-74
2021/01/17 07:10:04;;;;;;;31.58;16.13;;;2.00;92.70;;;;;;5100849;27;20035;-75
2021/01/17 07:12:48;;;;;;;32.35;17.45;;;2.00;92.70;;;;;;5102053;28;20069;-74
2021/01/17 07:15:14;;;;;;;31.02;16.30;;;2.10;92.70;;;;;;5109859;28;20035;-75
2021/01/17 07:17:42;;;;;;;38.65;17.58;;;2.10;92.70;;;;;;5101536;28;20114;-74
2021/01/17 07:20:10;;;;;;;58.67;22.40;;;2.10;92.70;;;;;;5116389;27;20055;-74
2021/01/17 07:22:37;;;;;;;34.85;17.80;;;2.10;92.70;;;;;;5097903;28;20027;-74
2021/01/17 07:25:06;;;;;;;35.28;17.48;;;2.10;92.80;;;;;;5115331;28;20426;-74
2021/01/17 07:27:52;;;;;;;44.75;18.52;;;2.00;92.80;;;;;;5115362;28;20016;-75
2021/01/17 07:30:38;;;;;;;34.05;16.00;;;2.10;92.90;;;;;;5103385;28;20111;-74
2021/01/17 07:33:05;;;;;;;29.25;14.80;;;2.10;92.90;;;;;;5104391;28;20507;-74
2021/01/17 07:35:42;;;;;;;31.27;15.52;;;2.00;92.80;;;;;;5111872;28;20506;-74
2021/01/17 07:38:29;;;;;;;31.17;16.17;;;2.10;92.90;;;;;;5119653;27;20032;-74
2021/01/17 07:41:00;;;;;;;30.40;16.73;;;2.10;92.90;;;;;;5105269;27;20027;-74
2021/01/17 07:43:30;;;;;;;27.60;14.55;;;2.10;92.90;;;;;;5078351;28;20028;-74
2021/01/17 07:46:01;;;;;;;29.73;14.98;;;2.10;92.80;;;;;;5113256;28;20038;-74
2021/01/17 07:48:27;;;;;;;25.08;13.93;;;2.10;92.80;;;;;;5115483;28;20027;-74
2021/01/17 07:50:56;;;;;;;30.15;15.23;;;2.10;93.10;;;;;;5115737;27;20080;-74
2021/01/17 07:53:39;;;;;;;30.83;16.00;;;2.20;92.90;;;;;;5121228;27;20076;-74
2021/01/17 07:56:12;;;;;;;41.15;17.83;;;2.20;92.90;;;;;;5120665;27;20489;-74
2021/01/17 07:58:44;;;;;;;30.13;16.77;;;2.20;92.80;;;;;;5096890;28;20031;-74
2021/01/17 08:01:39;;;;;;;26.58;14.63;;;2.20;92.90;;;;;;5129491;27;20035;-74
2021/01/17 08:04:04;;;;;;;30.25;14.95;;;2.20;92.90;;;;;;5118356;27;20039;-74
2021/01/17 08:06:36;;;;;;;34.10;17.13;;;2.20;92.80;;;;;;5097147;28;20031;-74
2021/01/17 08:09:16;;;;;;;32.38;15.65;;;2.30;92.90;;;;;;5109576;28;20019;-74
2021/01/17 08:11:48;;;;;;;30.75;16.27;;;2.30;92.90;;;;;;5114989;27;20020;-74
2021/01/17 08:14:29;;;;;;;33.35;14.63;;;2.30;92.80;;;;;;5094734;28;20085;-74
2021/01/17 08:17:12;;;;;;;37.65;17.40;;;2.30;92.90;;;;;;5088907;27;20088;-74
2021/01/17 08:19:52;;;;;;;30.80;16.20;;;2.30;92.80;;;;;;5096150;28;20024;-75
2021/01/17 08:22:18;;;;;;;36.17;16.88;;;2.30;92.80;;;;;;5114608;28;20032;-74
2021/01/17 08:25:03;;;;;;;37.22;16.65;;;2.30;92.80;;;;;;5097561;28;20407;-74
2021/01/17 08:27:31;;;;;;;34.88;16.83;;;2.30;92.80;;;;;;5079909;28;20036;-73
2021/01/17 08:30:08;;;;;;;39.78;17.58;;;2.30;92.80;;;;;;5113671;28;20068;-74
2021/01/17 08:32:37;;;;;;;34.45;17.52;;;2.30;92.80;;;;;;5116420;27;20096;-74
2021/01/17 08:35:18;;;;;;;33.63;17.40;;;2.40;92.80;;;;;;5102958;27;20072;-74
2021/01/17 08:37:44;;;;;;;47.47;19.45;;;2.40;92.80;;;;;;5114814;27;20107;-74
2021/01/17 08:40:14;;;;;;;50.35;20.10;;;2.40;92.80;;;;;;5123612;27;20479;-74
2021/01/17 08:42:49;;;;;;;43.20;20.67;;;2.40;92.70;;;;;;5114504;27;20096;-74
2021/01/17 08:45:21;;;;;;;45.63;19.23;;;2.50;92.80;;;;;;5115196;27;20024;-74
2021/01/17 08:47:51;;;;;;;53.55;20.40;;;2.50;92.80;;;;;;5114488;28;20036;-74
2021/01/17 08:50:29;;;;;;;50.70;21.98;;;2.50;92.70;;;;;;5113666;28;20027;-74
2021/01/17 08:53:21;;;;;;;50.50;20.77;;;2.50;92.70;;;;;;5115482;27;20100;-74
2021/01/17 08:55:49;;;;;;;46.17;20.45;;;2.60;92.80;;;;;;5118645;27;20027;-74
2021/01/17 08:58:36;;;;;;;51.50;20.73;;;2.60;92.70;;;;;;5134856;27;20019;-74
2021/01/17 09:01:04;;;;;;;43.97;20.20;;;2.60;92.70;;;;;;5115648;27;20110;-74
2021/01/17 09:03:48;;;;;;;41.05;20.40;;;2.60;92.70;;;;;;5113190;28;20467;-74
2021/01/17 09:06:19;;;;;;;45.05;18.55;;;2.60;92.80;;;;;;5114141;27;20031;-74
2021/01/17 09:08:48;;;;;;;46.95;20.98;;;2.60;92.80;;;;;;5099331;28;20549;-73
2021/01/17 09:11:39;;;;;;;40.42;19.00;;;2.70;92.80;;;;;;5097874;28;20498;-74
2021/01/17 09:14:07;;;;;;;69.57;27.73;;;2.70;92.80;;;;;;5113559;28;20407;-73
2021/01/17 09:16:35;;;;;;;79.13;27.92;;;2.70;93.00;;;;;;5114589;27;20505;-73
2021/01/17 09:19:05;;;;;;;61.47;23.65;;;2.70;93.00;;;;;;5105299;28;20067;-74
2021/01/17 09:21:33;;;;;;;61.90;23.98;;;2.70;93.00;;;;;;5105100;28;20043;-73
2021/01/17 09:24:11;;;;;;;80.43;25.85;;;2.80;93.10;;;;;;5106198;28;20035;-74
2021/01/17 09:26:40;;;;;;;69.97;24.80;;;2.80;93.10;;;;;;5101001;27;20035;-74
2021/01/17 09:29:06;;;;;;;63.17;24.48;;;2.80;93.10;;;;;;5095627;28;20123;-74
2021/01/17 09:31:33;;;;;;;135.63;31.52;;;2.90;93.20;;;;;;5111569;27;20449;-74
2021/01/17 09:33:58;;;;;;;99.57;28.67;;;2.90;93.20;;;;;;5101750;27;20023;-74
2021/01/17 09:36:25;;;;;;;56.05;24.73;;;2.90;93.30;;;;;;5108455;27;20042;-74
2021/01/17 09:38:51;;;;;;;116.13;28.70;;;3.00;93.40;;;;;;5102451;28;20024;-74
2021/01/17 09:41:25;;;;;;;172.02;36.15;;;3.00;93.40;;;;;;5113547;28;20099;-74
2021/01/17 09:43:52;;;;;;;79.25;26.67;;;3.10;93.50;;;;;;5114476;27;20039;-74
2021/01/17 09:46:24;;;;;;;99.38;29.30;;;3.10;93.60;;;;;;5115457;27;20038;-74
2021/01/17 09:48:59;;;;;;;88.13;27.20;;;3.10;93.60;;;;;;5123897;27;20012;-74
2021/01/17 09:51:28;;;;;;;110.88;29.02;;;3.20;93.70;;;;;;5087612;28;20032;-74
2021/01/17 09:53:56;;;;;;;113.22;31.17;;;3.30;93.70;;;;;;5103954;28;20028;-74
2021/01/17 09:56:22;;;;;;;146.25;32.88;;;3.30;93.90;;;;;;5112466;28;20016;-75
2021/01/17 09:58:48;;;;;;;118.70;32.88;;;3.40;93.90;;;;;;5100863;28;20089;-74
2021/01/17 10:01:20;;;;;;;95.45;27.23;;;3.40;94.00;;;;;;5097675;28;20028;-73
2021/01/17 10:03:49;;;;;;;164.40;33.10;;;3.50;94.10;;;;;;5110754;28;20024;-74
2021/01/17 10:06:18;;;;;;;75.15;25.17;;;3.60;94.10;;;;;;5100961;28;20451;-75
2021/01/17 10:08:46;;;;;;;90.05;27.67;;;3.70;94.10;;;;;;5111751;28;20031;-75
2021/01/17 10:11:12;;;;;;;69.97;24.95;;;3.80;94.10;;;;;;5094143;28;20035;-76
2021/01/17 10:13:46;;;;;;;75.45;26.58;;;3.80;94.00;;;;;;5104407;28;20023;-76
2021/01/17 10:16:20;;;;;;;91.47;29.00;;;4.00;94.10;;;;;;5099642;28;20041;-76
2021/01/17 10:18:45;;;;;;;63.70;22.90;;;4.10;94.10;;;;;;5081280;28;20024;-78
2021/01/17 10:21:11;;;;;;;92.78;25.77;;;4.10;94.10;;;;;;5082073;28;20161;-77
2021/01/17 10:23:38;;;;;;;73.95;23.48;;;4.20;94.10;;;;;;5081466;28;20028;-76
2021/01/17 10:26:03;;;;;;;75.20;22.08;;;4.30;94.00;;;;;;5100181;28;20523;-76
2021/01/17 10:28:29;;;;;;;85.05;24.20;;;4.30;94.10;;;;;;5085413;28;20114;-77
2021/01/17 10:30:59;;;;;;;92.05;26.80;;;4.30;94.20;;;;;;5097258;28;20506;-77
2021/01/17 10:33:28;;;;;;;80.50;23.45;;;4.40;94.30;;;;;;5077348;28;20488;-76
2021/01/17 10:35:54;;;;;;;76.60;22.92;;;4.50;94.40;;;;;;5112438;28;20032;-77
2021/01/17 10:38:20;;;;;;;115.05;25.90;;;4.60;94.50;;;;;;5112436;28;20039;-76
2021/01/17 10:40:47;;;;;;;100.50;24.88;;;4.70;94.50;;;;;;5093775;28;20568;-75
2021/01/17 10:43:31;;;;;;;66.95;19.80;;;4.80;94.50;;;;;;5112331;28;20213;-75
2021/01/17 10:46:10;;;;;;;87.03;23.20;;;4.90;94.50;;;;;;5111706;28;20023;-74
2021/01/17 10:49:06;;;;;;;74.72;20.65;;;4.90;94.50;;;;;;5093973;28;20020;-74
2021/01/17 10:51:50;;;;;;;71.97;21.52;;;5.00;94.60;;;;;;5109634;28;20059;-75
2021/01/17 10:54:25;;;;;;;63.45;20.60;;;5.10;94.60;;;;;;5093684;28;20019;-76
2021/01/17 10:56:54;;;;;;;67.50;19.95;;;5.20;94.60;;;;;;5100107;28;20023;-76
2021/01/17 10:59:26;;;;;;;60.10;18.48;;;5.30;94.60;;;;;;5114992;27;20084;-75
2021/01/17 11:01:51;;;;;;;66.82;18.60;;;5.30;94.50;;;;;;5113014;27;20047;-75
2021/01/17 11:04:17;;;;;;;64.65;18.77;;;5.40;94.80;;;;;;5070614;28;20388;-76
2021/01/17 11:06:44;;;;;;;72.18;19.48;;;5.40;94.50;;;;;;5082240;28;20391;-76
2021/01/17 11:09:12;;;;;;;72.68;19.08;;;5.40;94.50;;;;;;5092120;27;20416;-76
2021/01/17 11:11:46;;;;;;;74.05;18.17;;;5.50;94.80;;;;;;5111243;27;20020;-76
2021/01/17 11:14:12;;;;;;;71.80;17.92;;;5.60;94.90;;;;;;5113663;28;20020;-76
2021/01/17 11:16:40;;;;;;;58.03;15.15;;;5.70;94.60;;;;;;5095671;28;20054;-76
2021/01/17 11:19:13;;;;;;;78.95;15.98;;;5.70;94.50;;;;;;5095668;28;20144;-76
2021/01/17 11:21:43;;;;;;;62.88;15.55;;;5.70;94.40;;;;;;5113478;28;20023;-75
2021/01/17 11:24:11;;;;;;;65.07;15.55;;;5.80;94.40;;;;;;5113984;28;20508;-76
2021/01/17 11:26:37;;;;;;;70.43;15.70;;;5.80;94.30;;;;;;5107012;28;20023;-76
2021/01/17 11:29:05;;;;;;;49.38;14.65;;;5.90;94.30;;;;;;5110754;28;20544;-75
2021/01/17 11:31:31;;;;;;;64.80;14.60;;;5.90;94.30;;;;;;5110515;28;20395;-75
2021/01/17 11:33:56;;;;;;;62.05;15.32;;;5.90;94.20;;;;;;5092767;28;20111;-75
2021/01/17 11:36:24;;;;;;;57.70;13.88;;;6.00;94.30;;;;;;5075383;28;20063;-76
2021/01/17 11:38:56;;;;;;;62.30;13.68;;;6.00;94.30;;;;;;5090654;28;20030;-76
2021/01/17 11:41:35;;;;;;;54.58;12.75;;;6.10;94.20;;;;;;5066669;28;20023;-75
2021/01/17 11:44:15;;;;;;;67.25;14.10;;;6.10;94.20;;;;;;5085382;28;20070;-75
2021/01/17 11:46:42;;;;;;;63.40;13.25;;;6.20;94.10;;;;;;5093968;28;20043;-75
2021/01/17 11:49:08;;;;;;;57.22;13.05;;;6.30;94.20;;;;;;5083094;28;20085;-75
2021/01/17 11:51:34;;;;;;;66.90;14.10;;;6.30;94.40;;;;;;5062265;28;20028;-76
2021/01/17 11:54:15;;;;;;;64.95;14.63;;;6.30;94.00;;;;;;5079444;28;20031;-75
2021/01/17 11:56:41;;;;;;;57.15;13.25;;;6.30;94.00;;;;;;5085091;28;20516;-75
2021/01/17 11:59:07;;;;;;;51.63;11.60;;;6.30;94.00;;;;;;5092624;28;20059;-76
2021/01/17 12:01:33;;;;;;;54.60;12.60;;;6.40;93.80;;;;;;5091585;28;20464;-75
2021/01/17 12:04:01;;;;;;;52.00;13.10;;;6.40;93.80;;;;;;5087228;28;20408;-76
2021/01/17 12:06:27;;;;;;;54.95;11.57;;;6.40;93.80;;;;;;5084974;28;20032;-75
2021/01/17 12:08:55;;;;;;;73.57;15.02;;;6.40;93.70;;;;;;5063649;28;20086;-75
2021/01/17 12:11:29;;;;;;;54.08;12.75;;;6.60;93.80;;;;;;5086683;28;20012;-73
2021/01/17 12:13:55;;;;;;;88.18;15.43;;;6.70;93.50;;;;;;5099361;28;20015;-73
2021/01/17 12:16:37;;;;;;;64.05;12.95;;;6.80;93.50;;;;;;5085072;28;20035;-73
2021/01/17 12:19:04;;;;;;;63.63;12.30;;;6.70;93.60;;;;;;5103459;28;20044;-72
2021/01/17 12:21:31;;;;;;;55.75;11.27;;;6.70;93.70;;;;;;5099920;28;20035;-73
2021/01/17 12:23:57;;;;;;;51.78;12.13;;;6.70;93.60;;;;;;5084027;28;20031;-72
2021/01/17 12:26:23;;;;;;;47.45;10.55;;;6.60;93.50;;;;;;5080981;28;20050;-73
2021/01/17 12:28:49;;;;;;;53.55;11.02;;;6.50;93.80;;;;;;5100698;28;20022;-72
2021/01/17 12:31:16;;;;;;;49.15;11.38;;;6.50;93.40;;;;;;5099173;27;20391;-73
2021/01/17 12:33:43;;;;;;;49.85;10.07;;;6.40;93.40;;;;;;5121034;27;20043;-72
2021/01/17 12:36:11;;;;;;;42.45;9.00;;;6.40;93.50;;;;;;5101258;28;20036;-73
2021/01/17 12:38:38;;;;;;;47.85;10.85;;;6.40;93.50;;;;;;5110098;28;20128;-75
2021/01/17 12:41:09;;;;;;;46.25;10.43;;;6.50;93.70;;;;;;5094221;28;20027;-75
2021/01/17 12:43:35;;;;;;;52.42;10.25;;;6.60;93.80;;;;;;5094044;28;20019;-75
2021/01/17 12:46:01;;;;;;;45.33;9.88;;;6.50;93.80;;;;;;5093973;28;20552;-75
2021/01/17 12:48:26;;;;;;;48.28;11.20;;;6.50;93.80;;;;;;5093830;28;20024;-74
2021/01/17 12:50:52;;;;;;;44.40;9.93;;;6.60;93.90;;;;;;5096013;28;20036;-75